Betancuria — EAMH — position and weather

sailwx.info

Track history (hours):
 
Tides and Currents Weather Stations Pressure Air Temp Water Temp Dewpoint Dewpoint Depression Visibility Wind Speed Wind Dir Waves Ship Positions

Betancuria

Last reported at 2017-Oct-14 19:03 UTC. Time now 2017-Oct-19 09:27 UTC.
Position N 37°38' E 002°07'.

Length 141 m; draft 4.7 m.

Type: Ship. MMSI: 224471000.

Date/timePositionNaut miles runAvg speedWind from/ knotsBaromVisibWave heightAir tempDewpointWater temp
2017-Oct-14 19:03N 37°38' E 002°07'011.3
2017-Oct-14 19:00N 37°38' E 002°06'611.4
2017-Oct-14 18:30N 37°37' E 001°59'611.2
2017-Oct-14 17:59N 37°37' E 001°52'611.1
2017-Oct-14 17:29N 37°36' E 001°45'510.8
2017-Oct-14 17:00N 37°36' E 001°38'1410.4
2017-Oct-14 15:39N 37°35' E 001°20'910.4
2017-Oct-14 14:49N 37°34' E 001°09'310.6
2017-Oct-14 14:30N 37°34' E 001°05'610.7
2017-Oct-14 13:55N 37°34' E 000°57'510.8
2017-Oct-14 13:30N 37°34' E 000°51'510.9
2017-Oct-14 13:00N 37°33' E 000°45'611.0
2017-Oct-14 12:30N 37°33' E 000°38'611.0
2017-Oct-14 12:00N 37°33' E 000°31'510.9
2017-Oct-14 11:30N 37°32' E 000°24'711.3
2017-Oct-14 10:52N 37°31' E 000°15'411.6
2017-Oct-14 10:30N 37°30' E 000°10'911.4
2017-Oct-14 09:45N 37°30' W 000°01'310.3
2017-Oct-14 09:27N 37°30' W 000°05'711.2
2017-Oct-14 08:49N 37°30' W 000°14'411.3
2017-Oct-14 08:29N 37°30' W 000°19'4 9.2
2017-Oct-14 08:00N 37°30' W 000°24'510.5
2017-Oct-14 07:30N 37°30' W 000°31'5 9.5
2017-Oct-14 06:58N 37°30' W 000°37'4 8.9
2017-Oct-14 06:30N 37°31' W 000°42'5 9.4
2017-Oct-14 06:00N 37°31' W 000°48'3 6.8
2017-Oct-14 05:30N 37°31' W 000°53'4 7.4
2017-Oct-14 05:00N 37°32' W 000°57'  
2017-Oct-09 21:40N 36°10' W 007°24'2 9.9
2017-Oct-09 21:25N 36°10' W 007°27'4 9.8
2017-Oct-09 21:00N 36°11' W 007°32'7 9.8
2017-Oct-09 20:20N 36°13' W 007°39'710.1
2017-Oct-09 19:40N 36°15' W 007°47'210.1
2017-Oct-09 19:28N 36°15' W 007°50'5 9.9
2017-Oct-09 19:00N 36°17' W 007°55'510.1
2017-Oct-09 18:28N 36°18' W 008°02'510.3
2017-Oct-09 18:00N 36°19' W 008°08'510.3
2017-Oct-09 17:30N 36°21' W 008°14'1510.4
2017-Oct-09 16:01N 36°24' W 008°32'010.8
2017-Oct-09 16:00N 36°24' W 008°33'1110.6
2017-Oct-09 14:58N 36°27' W 008°46'710.4
2017-Oct-09 14:17N 36°30' W 008°54'310.7
2017-Oct-09 13:58N 36°31' W 008°58'610.9
2017-Oct-09 13:24N 36°32' W 009°06'511.0
2017-Oct-09 12:59N 36°33' W 009°11'510.7
2017-Oct-09 12:30N 36°35' W 009°17'510.2
2017-Oct-09 12:00N 36°38' W 009°22'510.1
2017-Oct-09 11:30N 36°42' W 009°26'510.2
2017-Oct-09 11:00N 36°46' W 009°31'510.1
2017-Oct-09 10:30N 36°50' W 009°33'510.2
2017-Oct-09 10:00N 36°55' W 009°35'510.0
2017-Oct-09 09:30N 37°00' W 009°37'510.0
2017-Oct-09 09:00N 37°05' W 009°38'510.1
2017-Oct-09 08:30N 37°10' W 009°39'510.1
2017-Oct-09 08:00N 37°15' W 009°40'510.3
2017-Oct-09 07:30N 37°20' W 009°41'610.7
2017-Oct-09 06:59N 37°25' W 009°43'510.5
2017-Oct-09 06:30N 37°30' W 009°45'5 9.9
2017-Oct-09 06:00N 37°35' W 009°46'510.5
2017-Oct-09 05:30N 37°40' W 009°48'510.6
2017-Oct-09 05:00N 37°45' W 009°49'510.6
2017-Oct-09 04:30N 37°50' W 009°51'511.0
2017-Oct-09 04:00N 37°56' W 009°53'611.1
2017-Oct-09 03:30N 38°01' W 009°55'510.8
2017-Oct-09 03:00N 38°06' W 009°56'510.6
2017-Oct-09 02:30N 38°12' W 009°58'510.5
2017-Oct-09 02:00N 38°17' W 009°59'510.4
2017-Oct-09 01:30N 38°22' W 010°00'510.5
2017-Oct-09 01:00N 38°27' W 010°02'510.2
2017-Oct-09 00:30N 38°32' W 010°03'510.4
2017-Oct-09 00:00N 38°37' W 010°05'510.3
2017-Oct-08 23:30N 38°42' W 010°06'510.5
2017-Oct-08 23:00N 38°47' W 010°06'611.0
2017-Oct-08 22:30N 38°53' W 010°06'511.0
2017-Oct-08 22:00N 38°58' W 010°06'611.2
2017-Oct-08 21:30N 39°04' W 010°06'611.8
2017-Oct-08 21:00N 39°10' W 010°07'611.4
2017-Oct-08 20:30N 39°15' W 010°06'510.6
2017-Oct-08 20:00N 39°21' W 010°06'510.2
2017-Oct-08 19:30N 39°26' W 010°06'510.5
2017-Oct-08 19:00N 39°31' W 010°06'510.4
2017-Oct-08 18:30N 39°36' W 010°06'510.3
2017-Oct-08 18:00N 39°41' W 010°06'510.5
2017-Oct-08 17:30N 39°47' W 010°06'510.8
2017-Oct-08 17:00N 39°52' W 010°06'611.2
2017-Oct-08 16:30N 39°58' W 010°06'5 9.9
2017-Oct-08 16:00N 40°03' W 010°06'510.3
2017-Oct-08 15:30N 40°08' W 010°05'610.3
2017-Oct-08 14:58N 40°13' W 010°06'510.3
2017-Oct-08 14:30N 40°18' W 010°06'610.3
2017-Oct-08 13:58N 40°24' W 010°07'510.7
2017-Oct-08 13:30N 40°29' W 010°07'510.7
2017-Oct-08 13:00N 40°34' W 010°07'510.7
2017-Oct-08 12:30N 40°39' W 010°07'510.6
2017-Oct-08 12:00N 40°44' W 010°07'510.5
2017-Oct-08 11:30N 40°50' W 010°07'610.7
2017-Oct-08 10:57N 40°56' W 010°06'14110.6
2017-Oct-07 21:36N 43°17' W 010°06'110.5
2017-Oct-07 21:28N 43°18' W 010°05'510.3
2017-Oct-07 20:57N 43°23' W 010°02'510.3
2017-Oct-07 20:28N 43°28' W 009°59'3810.2
2017-Oct-07 16:46N 44°02' W 009°38'72 9.9
2017-Oct-07 09:31N 45°04' W 008°46'3010.0
2017-Oct-07 06:31N 45°31' W 008°28'012.1
2017-Oct-07 06:30N 45°31' W 008°28'13010.0
2017-Oct-06 17:33N 47°25' W 006°58'8 9.4
2017-Oct-06 16:43N 47°32' W 006°52'810.4
2017-Oct-06 15:58N 47°40' W 006°48'28 9.0
2017-Oct-06 12:48N 48°05' W 006°31'1110.1
2017-Oct-06 11:43N 48°15' W 006°23'1011.0
2017-Oct-06 10:48N 48°23' W 006°14'3612.0
2017-Oct-06 07:48N 48°54' W 005°45'113 9.9
2017-Oct-05 20:28N 49°51' W 003°16'11 8.8
2017-Oct-05 19:13N 49°57' W 003°01'2 8.3
2017-Oct-05 19:00N 49°58' W 002°59'4 8.1
2017-Oct-05 18:30N 49°59' W 002°54'4 8.1
2017-Oct-05 18:00N 50°01' W 002°48'3910.5
2017-Oct-05 14:17N 50°13' W 001°50'413.6
2017-Oct-05 13:59N 50°14' W 001°43'713.6
2017-Oct-05 13:30N 50°15' W 001°33'612.7
2017-Oct-05 13:00N 50°17' W 001°24'43 6.4
2017-Oct-05 06:17N 50°28' W 000°19'1 3.8
2017-Oct-05 06:00N 50°28' W 000°18'2 4.2
2017-Oct-05 05:30N 50°29' W 000°15'3 5.2
2017-Oct-05 05:00N 50°29' W 000°11'5 6.3
2017-Oct-05 04:15N 50°31' W 000°03'3 6.8
2017-Oct-05 03:53N 50°31' E 000°00'3 7.2
2017-Oct-05 03:30N 50°32' E 000°04'4 7.7
2017-Oct-05 03:00N 50°33' E 000°10'4 7.5
2017-Oct-05 02:30N 50°34' E 000°16'4 7.5
2017-Oct-05 01:59N 50°35' E 000°22'4 7.5
2017-Oct-05 01:30N 50°36' E 000°27'4 7.2
2017-Oct-05 01:00N 50°38' E 000°32'3 6.9
2017-Oct-05 00:30N 50°40' E 000°37'4 7.3
2017-Oct-05 00:00N 50°42' E 000°42'3 6.8
2017-Oct-04 23:30N 50°44' E 000°46'4 7.0
2017-Oct-04 23:00N 50°46' E 000°51'4 6.9
2017-Oct-04 22:29N 50°48' E 000°55'4 6.9
2017-Oct-04 21:57N 50°50' E 001°00'8 7.4
2017-Oct-04 20:48N 50°55' E 001°10'2 8.2
2017-Oct-04 20:30N 50°57' E 001°13'4 9.1
2017-Oct-04 20:00N 50°60' E 001°19'510.0
2017-Oct-04 19:30N 51°03' E 001°25'  
Track history (hours):
 
Tides and Currents Weather Stations Pressure Air Temp Water Temp Dewpoint Dewpoint Depression Visibility Wind Speed Wind Dir Waves Ship Positions

Betancuria

Last reported at 2017-Oct-14 19:03 UTC. Time now 2017-Oct-19 09:27 UTC.
Position N 37°38' E 002°07'.

Length 141 m; draft 4.7 m.

Type: Ship. MMSI: 224471000.

Date/timePositionNaut miles runAvg speedWind from/ knotsBaromVisibWave heightAir tempDewpointWater temp
2017-Oct-14 19:03N 37°38' E 002°07'011.3
2017-Oct-14 19:00N 37°38' E 002°06'611.4
2017-Oct-14 18:30N 37°37' E 001°59'611.2
2017-Oct-14 17:59N 37°37' E 001°52'611.1
2017-Oct-14 17:29N 37°36' E 001°45'510.8
2017-Oct-14 17:00N 37°36' E 001°38'1410.4
2017-Oct-14 15:39N 37°35' E 001°20'910.4
2017-Oct-14 14:49N 37°34' E 001°09'310.6
2017-Oct-14 14:30N 37°34' E 001°05'610.7
2017-Oct-14 13:55N 37°34' E 000°57'510.8
2017-Oct-14 13:30N 37°34' E 000°51'510.9
2017-Oct-14 13:00N 37°33' E 000°45'611.0
2017-Oct-14 12:30N 37°33' E 000°38'611.0
2017-Oct-14 12:00N 37°33' E 000°31'510.9
2017-Oct-14 11:30N 37°32' E 000°24'711.3
2017-Oct-14 10:52N 37°31' E 000°15'411.6
2017-Oct-14 10:30N 37°30' E 000°10'911.4
2017-Oct-14 09:45N 37°30' W 000°01'310.3
2017-Oct-14 09:27N 37°30' W 000°05'711.2
2017-Oct-14 08:49N 37°30' W 000°14'411.3
2017-Oct-14 08:29N 37°30' W 000°19'4 9.2
2017-Oct-14 08:00N 37°30' W 000°24'510.5
2017-Oct-14 07:30N 37°30' W 000°31'5 9.5
2017-Oct-14 06:58N 37°30' W 000°37'4 8.9
2017-Oct-14 06:30N 37°31' W 000°42'5 9.4
2017-Oct-14 06:00N 37°31' W 000°48'3 6.8
2017-Oct-14 05:30N 37°31' W 000°53'4 7.4
2017-Oct-14 05:00N 37°32' W 000°57'  
2017-Oct-09 21:40N 36°10' W 007°24'2 9.9
2017-Oct-09 21:25N 36°10' W 007°27'4 9.8
2017-Oct-09 21:00N 36°11' W 007°32'7 9.8
2017-Oct-09 20:20N 36°13' W 007°39'710.1
2017-Oct-09 19:40N 36°15' W 007°47'210.1
2017-Oct-09 19:28N 36°15' W 007°50'5 9.9
2017-Oct-09 19:00N 36°17' W 007°55'510.1
2017-Oct-09 18:28N 36°18' W 008°02'510.3
2017-Oct-09 18:00N 36°19' W 008°08'510.3
2017-Oct-09 17:30N 36°21' W 008°14'1510.4
2017-Oct-09 16:01N 36°24' W 008°32'010.8
2017-Oct-09 16:00N 36°24' W 008°33'1110.6
2017-Oct-09 14:58N 36°27' W 008°46'710.4
2017-Oct-09 14:17N 36°30' W 008°54'310.7
2017-Oct-09 13:58N 36°31' W 008°58'610.9
2017-Oct-09 13:24N 36°32' W 009°06'511.0
2017-Oct-09 12:59N 36°33' W 009°11'510.7
2017-Oct-09 12:30N 36°35' W 009°17'510.2
2017-Oct-09 12:00N 36°38' W 009°22'510.1
2017-Oct-09 11:30N 36°42' W 009°26'510.2
2017-Oct-09 11:00N 36°46' W 009°31'510.1
2017-Oct-09 10:30N 36°50' W 009°33'510.2
2017-Oct-09 10:00N 36°55' W 009°35'510.0
2017-Oct-09 09:30N 37°00' W 009°37'510.0
2017-Oct-09 09:00N 37°05' W 009°38'510.1
2017-Oct-09 08:30N 37°10' W 009°39'510.1
2017-Oct-09 08:00N 37°15' W 009°40'510.3
2017-Oct-09 07:30N 37°20' W 009°41'610.7
2017-Oct-09 06:59N 37°25' W 009°43'510.5
2017-Oct-09 06:30N 37°30' W 009°45'5 9.9
2017-Oct-09 06:00N 37°35' W 009°46'510.5
2017-Oct-09 05:30N 37°40' W 009°48'510.6
2017-Oct-09 05:00N 37°45' W 009°49'510.6
2017-Oct-09 04:30N 37°50' W 009°51'511.0
2017-Oct-09 04:00N 37°56' W 009°53'611.1
2017-Oct-09 03:30N 38°01' W 009°55'510.8
2017-Oct-09 03:00N 38°06' W 009°56'510.6
2017-Oct-09 02:30N 38°12' W 009°58'510.5
2017-Oct-09 02:00N 38°17' W 009°59'510.4
2017-Oct-09 01:30N 38°22' W 010°00'510.5
2017-Oct-09 01:00N 38°27' W 010°02'510.2
2017-Oct-09 00:30N 38°32' W 010°03'510.4
2017-Oct-09 00:00N 38°37' W 010°05'510.3
2017-Oct-08 23:30N 38°42' W 010°06'510.5
2017-Oct-08 23:00N 38°47' W 010°06'611.0
2017-Oct-08 22:30N 38°53' W 010°06'511.0
2017-Oct-08 22:00N 38°58' W 010°06'611.2
2017-Oct-08 21:30N 39°04' W 010°06'611.8
2017-Oct-08 21:00N 39°10' W 010°07'611.4
2017-Oct-08 20:30N 39°15' W 010°06'510.6
2017-Oct-08 20:00N 39°21' W 010°06'510.2
2017-Oct-08 19:30N 39°26' W 010°06'510.5
2017-Oct-08 19:00N 39°31' W 010°06'510.4
2017-Oct-08 18:30N 39°36' W 010°06'510.3
2017-Oct-08 18:00N 39°41' W 010°06'510.5
2017-Oct-08 17:30N 39°47' W 010°06'510.8
2017-Oct-08 17:00N 39°52' W 010°06'611.2
2017-Oct-08 16:30N 39°58' W 010°06'5 9.9
2017-Oct-08 16:00N 40°03' W 010°06'510.3
2017-Oct-08 15:30N 40°08' W 010°05'610.3
2017-Oct-08 14:58N 40°13' W 010°06'510.3
2017-Oct-08 14:30N 40°18' W 010°06'610.3
2017-Oct-08 13:58N 40°24' W 010°07'510.7
2017-Oct-08 13:30N 40°29' W 010°07'510.7
2017-Oct-08 13:00N 40°34' W 010°07'510.7
2017-Oct-08 12:30N 40°39' W 010°07'510.6
2017-Oct-08 12:00N 40°44' W 010°07'510.5
2017-Oct-08 11:30N 40°50' W 010°07'610.7
2017-Oct-08 10:57N 40°56' W 010°06'14110.6
2017-Oct-07 21:36N 43°17' W 010°06'110.5
2017-Oct-07 21:28N 43°18' W 010°05'510.3
2017-Oct-07 20:57N 43°23' W 010°02'510.3
2017-Oct-07 20:28N 43°28' W 009°59'3810.2
2017-Oct-07 16:46N 44°02' W 009°38'72 9.9
2017-Oct-07 09:31N 45°04' W 008°46'3010.0
2017-Oct-07 06:31N 45°31' W 008°28'012.1
2017-Oct-07 06:30N 45°31' W 008°28'13010.0
2017-Oct-06 17:33N 47°25' W 006°58'8 9.4
2017-Oct-06 16:43N 47°32' W 006°52'810.4
2017-Oct-06 15:58N 47°40' W 006°48'28 9.0
2017-Oct-06 12:48N 48°05' W 006°31'1110.1
2017-Oct-06 11:43N 48°15' W 006°23'1011.0
2017-Oct-06 10:48N 48°23' W 006°14'3612.0
2017-Oct-06 07:48N 48°54' W 005°45'113 9.9
2017-Oct-05 20:28N 49°51' W 003°16'11 8.8
2017-Oct-05 19:13N 49°57' W 003°01'2 8.3
2017-Oct-05 19:00N 49°58' W 002°59'4 8.1
2017-Oct-05 18:30N 49°59' W 002°54'4 8.1
2017-Oct-05 18:00N 50°01' W 002°48'3910.5
2017-Oct-05 14:17N 50°13' W 001°50'413.6
2017-Oct-05 13:59N 50°14' W 001°43'713.6
2017-Oct-05 13:30N 50°15' W 001°33'612.7
2017-Oct-05 13:00N 50°17' W 001°24'43 6.4
2017-Oct-05 06:17N 50°28' W 000°19'1 3.8
2017-Oct-05 06:00N 50°28' W 000°18'2 4.2
2017-Oct-05 05:30N 50°29' W 000°15'3 5.2
2017-Oct-05 05:00N 50°29' W 000°11'5 6.3
2017-Oct-05 04:15N 50°31' W 000°03'3 6.8
2017-Oct-05 03:53N 50°31' E 000°00'3 7.2
2017-Oct-05 03:30N 50°32' E 000°04'4 7.7
2017-Oct-05 03:00N 50°33' E 000°10'4 7.5
2017-Oct-05 02:30N 50°34' E 000°16'4 7.5
2017-Oct-05 01:59N 50°35' E 000°22'4 7.5
2017-Oct-05 01:30N 50°36' E 000°27'4 7.2
2017-Oct-05 01:00N 50°38' E 000°32'3 6.9
2017-Oct-05 00:30N 50°40' E 000°37'4 7.3
2017-Oct-05 00:00N 50°42' E 000°42'3 6.8
2017-Oct-04 23:30N 50°44' E 000°46'4 7.0
2017-Oct-04 23:00N 50°46' E 000°51'4 6.9
2017-Oct-04 22:29N 50°48' E 000°55'4 6.9
2017-Oct-04 21:57N 50°50' E 001°00'8 7.4
2017-Oct-04 20:48N 50°55' E 001°10'2 8.2
2017-Oct-04 20:30N 50°57' E 001°13'4 9.1
2017-Oct-04 20:00N 50°60' E 001°19'510.0
2017-Oct-04 19:30N 51°03' E 001°25'  

Dump ship's entire track history